createdAt,value
2019-01-19T00:01:22.441Z,-0.10
2019-01-19T00:04:03.393Z,-0.10
2019-01-19T00:06:44.110Z,-0.20
2019-01-19T00:09:24.722Z,-0.20
2019-01-19T00:12:06.115Z,-0.20
2019-01-19T00:14:46.595Z,-0.20
2019-01-19T00:17:27.493Z,-0.30
2019-01-19T00:20:07.931Z,-0.30
2019-01-19T00:22:49.385Z,-0.30
2019-01-19T00:25:30.378Z,-0.30
2019-01-19T00:28:11.269Z,-0.30
2019-01-19T00:30:52.630Z,-0.40
2019-01-19T00:33:33.491Z,-0.40
2019-01-19T00:36:14.175Z,-0.40
2019-01-19T00:38:54.971Z,-0.40
2019-01-19T00:41:35.643Z,-0.40
2019-01-19T00:44:16.546Z,-0.40
2019-01-19T00:46:57.933Z,-0.40
2019-01-19T00:49:38.729Z,-0.50
2019-01-19T00:52:20.027Z,-0.50
2019-01-19T00:55:01.031Z,-0.50
2019-01-19T00:57:41.509Z,-0.50
2019-01-19T01:00:22.259Z,-0.60
2019-01-19T01:03:02.796Z,-0.60
2019-01-19T01:05:44.101Z,-0.60
2019-01-19T01:08:24.933Z,-0.60
2019-01-19T01:11:06.225Z,-0.60
2019-01-19T01:13:47.531Z,-0.60
2019-01-19T01:16:28.265Z,-0.60
2019-01-19T01:19:09.109Z,-0.60
2019-01-19T01:21:49.839Z,-0.70
2019-01-19T01:24:30.559Z,-0.70
2019-01-19T01:27:31.901Z,-0.70
2019-01-19T01:30:39.276Z,-0.70
2019-01-19T01:33:20.627Z,-0.70
2019-01-19T01:36:01.936Z,-0.80
2019-01-19T01:38:42.607Z,-0.80
2019-01-19T01:41:28.424Z,-0.80
2019-01-19T01:44:09.665Z,-0.90
2019-01-19T01:46:50.469Z,-0.90
2019-01-19T01:49:31.390Z,-0.90
2019-01-19T01:52:12.178Z,-0.90
2019-01-19T01:55:10.458Z,-0.90
2019-01-19T01:58:02.223Z,-0.90
2019-01-19T02:00:42.754Z,-0.90
2019-01-19T02:03:23.280Z,-1.00
2019-01-19T02:06:04.222Z,-1.00
2019-01-19T02:08:49.650Z,-1.00
2019-01-19T02:11:30.754Z,-0.90
2019-01-19T02:14:11.543Z,-1.00
2019-01-19T02:16:52.528Z,-1.00
2019-01-19T02:19:33.800Z,-1.00
2019-01-19T02:22:16.513Z,-1.10
2019-01-19T02:24:57.562Z,-1.10
2019-01-19T02:27:38.393Z,-1.10
2019-01-19T02:30:19.025Z,-1.10
2019-01-19T02:32:59.785Z,-1.10
2019-01-19T02:35:48.159Z,-1.10
2019-01-19T02:38:22.987Z,-1.10
2019-01-19T02:41:03.854Z,-1.10
2019-01-19T02:43:44.411Z,-1.10
2019-01-19T02:46:25.236Z,-1.10
2019-01-19T02:49:05.798Z,-1.10
2019-01-19T02:51:46.621Z,-1.10
2019-01-19T02:54:27.857Z,-1.10
2019-01-19T02:57:08.435Z,-1.10
2019-01-19T03:02:47.771Z,-1.20
2019-01-19T03:05:28.982Z,-1.20
2019-01-19T03:08:10.031Z,-1.20
2019-01-19T03:10:50.662Z,-1.30
2019-01-19T03:13:31.470Z,-1.30
2019-01-19T03:16:11.981Z,-1.30
2019-01-19T03:18:52.661Z,-1.30
2019-01-19T03:21:33.411Z,-1.20
2019-01-19T03:24:14.610Z,-1.30
2019-01-19T03:26:55.099Z,-1.30
2019-01-19T03:29:36.343Z,-1.30
2019-01-19T03:32:18.000Z,-1.30
2019-01-19T03:38:47.468Z,-1.30
2019-01-19T03:41:29.112Z,-1.40
2019-01-19T03:44:10.475Z,-1.40
2019-01-19T03:46:51.195Z,-1.40
2019-01-19T03:56:01.659Z,-1.40
2019-01-19T03:58:42.428Z,-1.40
2019-01-19T04:01:23.218Z,-1.40
2019-01-19T04:04:04.422Z,-1.40
2019-01-19T04:06:45.093Z,-1.40
2019-01-19T04:09:26.332Z,-1.40
2019-01-19T04:12:40.447Z,-1.40
2019-01-19T04:15:47.894Z,-1.40
2019-01-19T04:19:01.292Z,-1.40
2019-01-19T04:22:01.318Z,-1.50
2019-01-19T04:24:42.464Z,-1.50
2019-01-19T04:27:23.740Z,-1.50
2019-01-19T04:30:04.723Z,-1.50
2019-01-19T04:32:45.385Z,-1.50
2019-01-19T04:35:26.438Z,-1.60
2019-01-19T04:38:07.831Z,-1.60
2019-01-19T04:40:48.362Z,-1.60
2019-01-19T04:43:29.666Z,-1.60
2019-01-19T04:46:12.291Z,-1.70
2019-01-19T04:48:53.017Z,-1.70
2019-01-19T04:51:33.797Z,-1.60
2019-01-19T04:54:15.102Z,-1.60
2019-01-19T04:56:54.471Z,-1.60
2019-01-19T04:59:42.837Z,-1.60
2019-01-19T05:02:24.186Z,-1.60
2019-01-19T05:05:04.595Z,-1.60
2019-01-19T05:07:45.442Z,-1.70
2019-01-19T05:10:26.539Z,-1.70
2019-01-19T05:13:07.308Z,-1.70
2019-01-19T05:15:48.218Z,-1.70
2019-01-19T05:18:29.667Z,-1.70
2019-01-19T05:21:10.571Z,-1.70
2019-01-19T05:23:51.027Z,-1.70
2019-01-19T05:26:39.328Z,-1.60
2019-01-19T05:29:19.961Z,-1.60
2019-01-19T05:32:00.548Z,-1.60
2019-01-19T05:34:40.019Z,-1.60
2019-01-19T05:37:20.494Z,-1.60
2019-01-19T05:40:01.824Z,-1.60
2019-01-19T05:42:42.883Z,-1.60
2019-01-19T05:45:23.905Z,-1.60
2019-01-19T05:48:04.692Z,-1.60
2019-01-19T05:50:45.425Z,-1.60
2019-01-19T05:53:25.971Z,-1.60
2019-01-19T05:56:06.913Z,-1.70
2019-01-19T05:58:48.265Z,-1.70
2019-01-19T06:01:29.990Z,-1.70
2019-01-19T06:04:11.077Z,-1.70
2019-01-19T06:06:51.737Z,-1.70
2019-01-19T06:09:32.442Z,-1.80
2019-01-19T06:12:13.445Z,-1.80
2019-01-19T06:14:54.173Z,-1.80
2019-01-19T06:17:34.891Z,-1.80
2019-01-19T06:20:16.603Z,-1.80
2019-01-19T06:22:57.634Z,-1.80
2019-01-19T06:25:38.957Z,-1.80
2019-01-19T06:28:19.999Z,-1.80
2019-01-19T06:31:00.968Z,-1.80
2019-01-19T06:33:41.713Z,-1.80
2019-01-19T06:36:22.565Z,-1.80
2019-01-19T06:39:03.706Z,-1.80
2019-01-19T06:41:45.050Z,-1.80
2019-01-19T06:44:26.480Z,-1.90
2019-01-19T06:47:07.157Z,-1.90
2019-01-19T06:49:47.862Z,-1.90
2019-01-19T06:52:29.256Z,-1.90
2019-01-19T06:55:10.289Z,-1.90
2019-01-19T06:57:51.289Z,-1.90
2019-01-19T07:00:32.443Z,-1.90
2019-01-19T07:03:13.485Z,-1.90
2019-01-19T07:05:54.398Z,-1.90
2019-01-19T07:08:35.205Z,-1.90
2019-01-19T07:11:16.075Z,-1.90
2019-01-19T07:13:57.382Z,-1.90
2019-01-19T07:16:38.166Z,-1.90
2019-01-19T07:19:19.094Z,-1.90
2019-01-19T07:21:59.958Z,-1.90
2019-01-19T07:27:23.438Z,-1.90
2019-01-19T07:30:04.524Z,-1.90
2019-01-19T07:35:44.146Z,-2.00
2019-01-19T07:38:24.661Z,-1.90
2019-01-19T07:41:05.987Z,-1.90
2019-01-19T07:43:46.649Z,-1.90
2019-01-19T07:49:17.133Z,-1.80
2019-01-19T07:51:58.420Z,-1.80
2019-01-19T07:54:39.821Z,-1.80
2019-01-19T07:57:19.286Z,-1.80
2019-01-19T07:59:59.850Z,-1.80
2019-01-19T08:02:40.432Z,-1.70
2019-01-19T08:05:20.904Z,-1.70
2019-01-19T08:08:01.417Z,-1.70
2019-01-19T08:10:42.391Z,-1.70
2019-01-19T08:19:43.452Z,-1.60
2019-01-19T08:22:24.348Z,-1.60
2019-01-19T08:27:57.574Z,-1.50
2019-01-19T08:30:57.237Z,-1.50
2019-01-19T08:33:42.861Z,-1.40
2019-01-19T08:36:23.747Z,-1.40
2019-01-19T08:42:09.504Z,-1.30
2019-01-19T08:44:50.950Z,-1.30
2019-01-19T08:50:30.525Z,-1.30
2019-01-19T08:53:11.736Z,-1.20
2019-01-19T08:55:52.871Z,-1.20
2019-01-19T09:01:15.780Z,-1.20
2019-01-19T09:03:45.148Z,-1.10
2019-01-19T09:06:14.616Z,-1.10
2019-01-19T09:11:58.691Z,-1.10
2019-01-19T09:14:39.997Z,-1.00
2019-01-19T09:17:20.787Z,-1.00
2019-01-19T09:20:02.206Z,-1.00
2019-01-19T09:22:42.962Z,-0.90
2019-01-19T09:25:23.806Z,-0.90
2019-01-19T09:28:04.700Z,-0.90
2019-01-19T09:30:45.653Z,-0.90
2019-01-19T09:33:26.240Z,-0.80
2019-01-19T09:36:06.765Z,-0.70
2019-01-19T09:38:48.088Z,-0.70
2019-01-19T09:41:28.997Z,-0.70
2019-01-19T09:44:09.829Z,-0.60
2019-01-19T09:46:50.564Z,-0.60
2019-01-19T09:49:31.521Z,-0.60
2019-01-19T09:52:12.190Z,-0.50
2019-01-19T09:54:53.075Z,-0.50
2019-01-19T09:57:33.899Z,-0.40
2019-01-19T10:00:14.887Z,-0.30
2019-01-19T10:02:55.761Z,-0.30
2019-01-19T10:05:36.320Z,-0.30
2019-01-19T10:08:17.145Z,-0.20
2019-01-19T10:10:58.451Z,-0.20
2019-01-19T10:13:39.423Z,-0.10
2019-01-19T10:16:20.312Z,-0.10
2019-01-19T10:19:00.855Z,0.00
2019-01-19T10:21:41.474Z,0.10
2019-01-19T10:24:22.271Z,0.20
2019-01-19T10:30:22.530Z,0.20
2019-01-19T10:33:03.281Z,0.30
2019-01-19T10:35:43.928Z,0.40
2019-01-19T10:38:44.213Z,0.40
2019-01-19T10:41:24.747Z,0.50
2019-01-19T10:44:05.585Z,0.50
2019-01-19T10:46:46.583Z,0.60
2019-01-19T10:49:27.791Z,0.60
2019-01-19T10:52:09.083Z,0.60
2019-01-19T10:54:50.472Z,0.70
2019-01-19T10:57:31.183Z,0.70
2019-01-19T11:00:12.411Z,0.80
2019-01-19T11:02:52.910Z,0.80
2019-01-19T11:05:34.023Z,0.90
2019-01-19T11:08:15.188Z,0.90
2019-01-19T11:10:56.506Z,1.00
2019-01-19T11:13:37.333Z,1.00
2019-01-19T11:16:18.659Z,1.00
2019-01-19T11:18:59.416Z,1.10
2019-01-19T11:21:40.208Z,1.20
2019-01-19T11:24:21.432Z,1.20
2019-01-19T11:27:02.549Z,1.30
2019-01-19T11:29:41.655Z,1.30
2019-01-19T11:32:22.566Z,1.50
2019-01-19T11:35:02.975Z,1.50
2019-01-19T11:37:43.918Z,1.50
2019-01-19T11:40:25.488Z,1.50
2019-01-19T11:43:06.176Z,1.60
2019-01-19T11:51:44.876Z,1.90
2019-01-19T11:54:26.247Z,1.80
2019-01-19T11:57:07.599Z,1.80
2019-01-19T11:59:49.276Z,1.90
2019-01-19T12:02:36.992Z,1.90
2019-01-19T12:05:15.778Z,1.90
2019-01-19T12:07:56.796Z,2.00
2019-01-19T12:10:38.127Z,2.00
2019-01-19T12:13:18.658Z,2.10
2019-01-19T12:15:59.198Z,2.10
2019-01-19T12:18:40.131Z,2.10
2019-01-19T12:27:33.302Z,2.40
2019-01-19T12:30:14.585Z,2.30
2019-01-19T12:42:14.369Z,2.20
2019-01-19T12:44:55.785Z,2.30
2019-01-19T12:47:36.767Z,2.20
2019-01-19T12:50:18.021Z,2.20
2019-01-19T12:52:59.394Z,2.30
2019-01-19T12:55:40.238Z,2.40
2019-01-19T12:58:20.872Z,2.50
2019-01-19T13:01:01.711Z,2.50
2019-01-19T13:03:43.143Z,2.50
2019-01-19T13:06:24.499Z,2.60
2019-01-19T13:09:12.324Z,2.60
2019-01-19T13:11:48.139Z,2.60
2019-01-19T13:14:29.754Z,2.70
2019-01-19T13:17:11.488Z,2.70
2019-01-19T13:19:52.673Z,2.70
2019-01-19T13:22:33.924Z,2.80
2019-01-19T13:25:15.181Z,2.80
2019-01-19T13:27:56.202Z,2.80
2019-01-19T13:30:37.456Z,2.90
2019-01-19T13:33:18.232Z,2.90
2019-01-19T13:35:59.614Z,2.90
2019-01-19T13:38:42.096Z,2.90
2019-01-19T13:44:09.452Z,2.90
2019-01-19T13:47:21.242Z,2.90
2019-01-19T13:50:16.124Z,3.00
2019-01-19T13:53:23.422Z,2.90
2019-01-19T13:56:04.126Z,2.90
2019-01-19T13:58:44.712Z,2.90
2019-01-19T14:01:25.821Z,2.90
2019-01-19T14:04:07.104Z,2.90
2019-01-19T14:06:48.110Z,2.90
2019-01-19T14:09:30.171Z,2.90
2019-01-19T14:12:11.571Z,3.00
2019-01-19T14:14:52.443Z,3.00
2019-01-19T14:17:33.841Z,3.00
2019-01-19T14:20:14.609Z,2.90
2019-01-19T14:23:02.189Z,3.00
2019-01-19T14:26:09.518Z,3.10
2019-01-19T14:28:50.673Z,3.10
2019-01-19T14:31:32.053Z,3.10
2019-01-19T14:34:13.181Z,3.10
2019-01-19T14:36:54.639Z,3.10
2019-01-19T14:39:35.954Z,3.20
2019-01-19T14:42:16.655Z,3.20
2019-01-19T14:44:57.570Z,3.20
2019-01-19T14:47:38.781Z,3.20
2019-01-19T14:50:38.489Z,3.20
2019-01-19T14:53:19.803Z,3.20
2019-01-19T14:56:00.778Z,3.20
2019-01-19T14:58:41.482Z,3.20
2019-01-19T15:01:22.123Z,3.20
2019-01-19T15:04:02.793Z,3.20
2019-01-19T15:06:43.625Z,3.20
2019-01-19T15:09:24.114Z,3.10
2019-01-19T15:12:05.197Z,3.00
2019-01-19T15:14:46.627Z,2.90
2019-01-19T15:17:28.158Z,2.90
2019-01-19T15:20:09.474Z,2.90
2019-01-19T15:22:50.324Z,2.90
2019-01-19T15:25:30.958Z,2.90
2019-01-19T15:28:12.060Z,2.80
2019-01-19T15:30:55.838Z,2.90
2019-01-19T15:33:37.303Z,2.80
2019-01-19T15:36:18.838Z,2.70
2019-01-19T15:39:00.360Z,2.60
2019-01-19T15:41:41.709Z,2.50
2019-01-19T15:44:22.558Z,2.50
2019-01-19T15:49:51.000Z,2.50
2019-01-19T15:55:14.644Z,2.30
2019-01-19T15:57:56.236Z,2.20
2019-01-19T16:00:37.390Z,2.20
2019-01-19T16:03:18.317Z,2.10
2019-01-19T16:05:59.248Z,2.10
2019-01-19T16:08:40.206Z,2.00
2019-01-19T16:11:21.631Z,1.90
2019-01-19T16:14:02.414Z,1.90
2019-01-19T16:16:43.630Z,1.80
2019-01-19T16:19:24.577Z,1.80
2019-01-19T16:22:05.698Z,1.70
2019-01-19T16:24:47.164Z,1.70
2019-01-19T16:27:27.683Z,1.70
2019-01-19T16:30:08.366Z,1.70
2019-01-19T16:32:49.738Z,1.80
2019-01-19T16:35:31.000Z,1.80
2019-01-19T16:38:12.446Z,1.80
2019-01-19T16:50:06.111Z,1.70
2019-01-19T16:56:09.604Z,1.60
2019-01-19T16:58:50.705Z,1.50
2019-01-19T17:01:31.295Z,1.50
2019-01-19T17:04:12.426Z,1.40
2019-01-19T17:06:53.897Z,1.40
2019-01-19T17:09:34.759Z,1.40
2019-01-19T17:15:35.377Z,1.30
2019-01-19T17:18:16.024Z,1.30
2019-01-19T17:20:56.425Z,1.30
2019-01-19T17:23:37.279Z,1.20
2019-01-19T17:26:18.388Z,1.20
2019-01-19T17:28:58.930Z,1.30
2019-01-19T17:31:40.429Z,1.30
2019-01-19T17:37:41.516Z,1.20
2019-01-19T17:40:22.388Z,1.20
2019-01-19T17:43:03.756Z,1.20
2019-01-19T17:45:44.413Z,1.20
2019-01-19T17:48:26.280Z,1.10
2019-01-19T17:51:07.938Z,1.10
2019-01-19T17:53:49.503Z,1.10
2019-01-19T17:56:34.799Z,1.00
2019-01-19T17:59:16.095Z,1.00
2019-01-19T18:01:57.386Z,0.90
2019-01-19T18:04:38.555Z,0.80
2019-01-19T18:07:20.000Z,0.80
2019-01-19T18:10:01.398Z,0.80
2019-01-19T18:12:41.914Z,0.80
2019-01-19T18:15:23.155Z,0.70
2019-01-19T18:18:04.165Z,0.80
2019-01-19T18:20:45.010Z,0.80
2019-01-19T18:23:25.582Z,0.80
2019-01-19T18:26:06.427Z,0.70
2019-01-19T18:28:47.909Z,0.70
2019-01-19T18:31:48.660Z,0.70
2019-01-19T18:34:54.609Z,0.70
2019-01-19T18:41:10.302Z,0.60
2019-01-19T18:43:51.418Z,0.60
2019-01-19T18:46:32.474Z,0.70
2019-01-19T18:49:13.350Z,0.70
2019-01-19T18:51:54.761Z,0.60
2019-01-19T18:54:35.298Z,0.60
2019-01-19T18:57:16.922Z,0.50
2019-01-19T18:59:58.658Z,0.50
2019-01-19T19:02:39.776Z,0.50
2019-01-19T19:05:20.331Z,0.50
2019-01-19T19:08:01.080Z,0.50
2019-01-19T19:10:41.644Z,0.50
2019-01-19T19:13:22.433Z,0.50
2019-01-19T19:16:04.023Z,0.50
2019-01-19T19:18:44.977Z,0.40
2019-01-19T19:21:26.417Z,0.40
2019-01-19T19:24:07.066Z,0.40
2019-01-19T19:26:47.890Z,0.40
2019-01-19T19:33:16.925Z,0.30
2019-01-19T19:35:57.619Z,0.30
2019-01-19T19:38:38.997Z,0.30
2019-01-19T19:41:19.525Z,0.30
2019-01-19T19:44:00.646Z,0.30
2019-01-19T19:46:41.891Z,0.30
2019-01-19T19:49:23.266Z,0.30
2019-01-19T19:52:04.232Z,0.30
2019-01-19T19:54:45.289Z,0.20
2019-01-19T19:57:26.000Z,0.20
2019-01-19T20:00:07.011Z,0.20
2019-01-19T20:02:47.766Z,0.20
2019-01-19T20:05:28.419Z,0.20
2019-01-19T20:08:09.594Z,0.20
2019-01-19T20:10:50.263Z,0.10
2019-01-19T20:13:31.127Z,0.10
2019-01-19T20:16:12.469Z,0.10
2019-01-19T20:18:53.933Z,0.10
2019-01-19T20:21:35.365Z,0.10
2019-01-19T20:24:16.721Z,0.10
2019-01-19T20:26:46.316Z,0.00
2019-01-19T20:29:34.674Z,0.00
2019-01-19T20:32:16.019Z,0.00
2019-01-19T20:34:57.401Z,0.00
2019-01-19T20:37:39.106Z,0.00
2019-01-19T20:40:24.447Z,0.00
2019-01-19T20:43:03.315Z,0.00
2019-01-19T20:45:44.057Z,0.00
2019-01-19T20:48:24.706Z,0.00
2019-01-19T20:51:05.498Z,0.00
2019-01-19T20:53:47.042Z,0.00
2019-01-19T20:59:20.438Z,0.00
2019-01-19T21:02:01.839Z,0.00
2019-01-19T21:04:42.890Z,-0.10
2019-01-19T21:07:23.727Z,-0.10
2019-01-19T21:10:03.390Z,-0.10
2019-01-19T21:12:51.645Z,-0.10
2019-01-19T21:15:32.486Z,-0.10
2019-01-19T21:18:13.289Z,-0.10
2019-01-19T21:20:54.737Z,-0.10
2019-01-19T21:23:35.224Z,-0.10
2019-01-19T21:26:15.954Z,-0.10
2019-01-19T21:28:55.322Z,-0.10
2019-01-19T21:31:36.250Z,-0.10
2019-01-19T21:36:59.423Z,-0.20
2019-01-19T21:42:53.415Z,-0.20
2019-01-19T21:45:34.039Z,-0.20
2019-01-19T21:51:19.731Z,-0.20
2019-01-19T21:53:59.061Z,-0.30
2019-01-19T21:56:40.217Z,-0.30
2019-01-19T21:59:21.472Z,-0.30
2019-01-19T22:02:02.096Z,-0.30
2019-01-19T22:04:43.165Z,-0.30
2019-01-19T22:07:24.622Z,-0.30
2019-01-19T22:10:05.193Z,-0.40
2019-01-19T22:12:49.126Z,-0.30
2019-01-19T22:15:30.463Z,-0.40
2019-01-19T22:18:11.050Z,-0.30
2019-01-19T22:20:51.973Z,-0.40
2019-01-19T22:23:33.498Z,-0.40
2019-01-19T22:26:16.174Z,-0.40
2019-01-19T22:28:58.974Z,-0.50
2019-01-19T22:31:39.745Z,-0.50
2019-01-19T22:34:20.502Z,-0.60
2019-01-19T22:37:02.031Z,-0.60
2019-01-19T22:39:43.286Z,-0.60
2019-01-19T22:42:24.687Z,-0.60
2019-01-19T22:45:05.394Z,-0.60
2019-01-19T22:47:46.528Z,-0.70
2019-01-19T22:50:27.036Z,-0.70
2019-01-19T22:53:06.428Z,-0.70
2019-01-19T22:55:54.974Z,-0.70
2019-01-19T22:58:36.134Z,-0.80
2019-01-19T23:01:16.756Z,-0.80
2019-01-19T23:03:57.972Z,-0.80
2019-01-19T23:06:39.139Z,-0.80
2019-01-19T23:09:20.220Z,-0.80
2019-01-19T23:11:55.915Z,-0.80
2019-01-19T23:17:07.635Z,-0.90
2019-01-19T23:19:56.046Z,-0.90
2019-01-19T23:22:36.649Z,-0.90
2019-01-19T23:25:17.262Z,-1.00
2019-01-19T23:27:58.207Z,-1.00
2019-01-19T23:30:40.034Z,-1.00
2019-01-19T23:33:20.987Z,-1.00
2019-01-19T23:36:02.216Z,-1.00
2019-01-19T23:38:42.697Z,-1.10
2019-01-19T23:41:23.775Z,-1.10
2019-01-19T23:44:04.870Z,-1.10
2019-01-19T23:46:46.091Z,-1.10
2019-01-19T23:49:27.382Z,-1.10
2019-01-19T23:52:08.884Z,-1.10
2019-01-19T23:54:38.359Z,-1.10
2019-01-19T23:57:26.737Z,-1.10
